KBPI/BPI METAR and TAF weather

Enter ICAO airport designator
Station Type Date Time Source
KBPI METAR 2019/10/16 19:53 UTC NOAA

KBPI 161953Z AUTO VRB05KT 10SM CLR 17/M09 A3020 RMK AO2 SLP180 T01721094


Station Type Date Time Source
KBPI Decoded METAR 2019/10/16 19:53 UTC NOAA

BIG PINEY-MARBLETON AIRPORT, WY, United States (KBPI) 42-35N 110-06W 2117M
Oct 16, 2019 - 03:53 PM EDT / 2019.10.16 1953 UTC
Wind: Variable at 6 MPH (5 KT):0
Visibility: 10 mile(s):0
Sky conditions: clear
Temperature: 63.0 F (17.2 C)
Dew Point: 15.1 F (-9.4 C)
Relative Humidity: 15%
Pressure (altimeter): 30.2 in. Hg (1022 hPa)
ob: KBPI 161953Z AUTO VRB05KT 10SM CLR 17/M09 A3020 RMK AO2 SLP180 T01721094
cycle: 20

Station Type Date Time Source
KBPI TAF 2019/10/16 18:24 UTC NOAA

TAF KBPI 161721Z 1618/1718 21007KT P6SM SKC
FM162200 29008KT P6SM SKC
FM170300 VRB06KT P6SM FEW200
FM171500 15007KT P6SM FEW100 SCT200

Example: see airport list